Time;durP1;ratioP1;P1;durP2;ratioP2;P2;SDS_P1;SDS_P2;PMS_P1;PMS_P2;Temp;Humidity;BMP_temperature;BMP_pressure;BME280_temperature;BME280_humidity;BME280_pressure;Samples;Min_cycle;Max_cycle;Signal;HPM_P1;HPM_P2
2023/02/25 00:02:23;;;;;;;;;;;;;;;20.84;40.22;101242.22;7259355;19;152531;-54
2023/02/25 00:04:52;;;;;;;;;;;;;;;20.86;40.13;101235.16;7263016;19;153710;-55
2023/02/25 00:07:21;;;;;;;;;;;;;;;20.89;39.78;101242.16;7259235;19;153398;-55
2023/02/25 00:09:48;;;;;;;;;;;;;;;20.92;39.80;101235.91;7263690;19;156653;-55
2023/02/25 00:12:15;;;;;;;;;;;;;;;20.95;39.67;101240.06;7264356;19;152655;-55
2023/02/25 00:14:44;;;;;;;;;;;;;;;20.95;40.04;101231.66;7261189;19;154000;-55
2023/02/25 00:17:11;;;;;;;;;;;;;;;20.97;39.51;101235.00;7264028;19;154620;-55
2023/02/25 00:19:38;;;;;;;;;;;;;;;20.97;39.61;101235.00;7272260;19;154219;-55
2023/02/25 00:22:05;;;;;;;;;;;;;;;20.97;39.45;101237.81;7262845;19;155216;-55
2023/02/25 00:24:32;;;;;;;;;;;;;;;20.97;39.77;101226.56;7263118;19;153695;-55
2023/02/25 00:26:59;;;;;;;;;;;;;;;20.98;39.89;101234.72;7259996;19;154919;-55
2023/02/25 00:29:26;;;;;;;;;;;;;;;20.98;39.64;101234.72;7260026;19;154594;-57
2023/02/25 00:31:53;;;;;;;;;;;;;;;20.97;39.95;101233.03;7262841;19;152477;-55
2023/02/25 00:34:20;;;;;;;;;;;;;;;20.96;39.78;101244.56;7263250;19;153574;-55
2023/02/25 00:36:48;;;;;;;;;;;;;;;20.97;40.05;101237.81;7260281;19;154222;-54
2023/02/25 00:39:18;;;;;;;;;;;;;;;20.97;40.17;101237.81;7261569;19;153719;-54
2023/02/25 00:41:45;;;;;;;;;;;;;;;20.96;40.55;101242.59;7268442;19;152815;-55
2023/02/25 00:44:14;;;;;;;;;;;;;;;20.97;40.50;101240.63;7258658;19;152835;-55
2023/02/25 00:46:40;;;;;;;;;;;;;;;20.93;40.43;101237.59;7262309;19;153565;-54
2023/02/25 00:49:07;;;;;;;;;;;;;;;20.88;40.33;101234.88;7258504;19;155191;-55
2023/02/25 00:51:37;;;;;;;;;;;;;;;20.84;40.63;101229.03;7259657;19;153750;-55
2023/02/25 00:54:04;;;;;;;;;;;;;;;20.83;40.57;101235.78;7264696;19;152399;-55
2023/02/25 00:56:31;;;;;;;;;;;;;;;20.81;40.73;101238.03;7259939;19;153948;-55
2023/02/25 00:59:01;;;;;;;;;;;;;;;20.82;41.08;101238.88;7257932;19;154307;-55
2023/02/25 01:01:29;;;;;;;;;;;;;;;20.77;40.93;101234.16;7264732;19;152573;-54
2023/02/25 01:03:57;;;;;;;;;;;;;;;20.77;41.14;101234.16;7267647;19;153912;-55
2023/02/25 01:06:27;;;;;;;;;;;;;;;20.75;41.01;101242.06;7257423;19;153650;-55
2023/02/25 01:08:54;;;;;;;;;;;;;;;20.73;40.95;101237.88;7256483;19;153901;-55
2023/02/25 01:11:25;;;;;;;;;;;;;;;20.72;41.18;101245.47;7256250;19;153759;-55
2023/02/25 01:13:52;;;;;;;;;;;;;;;20.71;41.77;101242.97;7252854;19;154215;-55
2023/02/25 01:16:20;;;;;;;;;;;;;;;20.68;41.81;101246.38;7256134;19;153814;-55
2023/02/25 01:18:50;;;;;;;;;;;;;;;20.66;41.72;101248.66;7252517;19;153965;-55
2023/02/25 01:21:19;;;;;;;;;;;;;;;20.65;41.98;101250.63;7256383;19;154141;-55
2023/02/25 01:23:47;;;;;;;;;;;;;;;20.62;41.81;101251.25;7254035;19;153685;-55
2023/02/25 01:26:14;;;;;;;;;;;;;;;20.57;41.96;101244.88;7263362;19;153223;-55
2023/02/25 01:28:43;;;;;;;;;;;;;;;20.58;41.72;101254.97;7249762;19;157569;-55
2023/02/25 01:31:13;;;;;;;;;;;;;;;20.52;42.03;101257.00;7256459;19;153324;-56
2023/02/25 01:33:47;;;;;;;;;;;;;;;20.50;41.74;101250.84;7255148;19;154525;-56
2023/02/25 01:36:14;;;;;;;;;;;;;;;20.48;41.96;101247.50;7253502;19;157201;-56
2023/02/25 01:38:41;;;;;;;;;;;;;;;20.47;42.11;101250.59;7255003;19;152746;-57
2023/02/25 01:41:08;;;;;;;;;;;;;;;20.41;41.99;101250.66;7256974;19;154775;-56
2023/02/25 01:43:35;;;;;;;;;;;;;;;20.39;42.02;101252.97;7251201;19;154115;-56
2023/02/25 01:46:02;;;;;;;;;;;;;;;20.36;42.51;101247.91;7254887;19;153098;-56
2023/02/25 01:48:31;;;;;;;;;;;;;;;20.32;42.03;101238.44;7257391;19;152491;-56
2023/02/25 01:51:02;;;;;;;;;;;;;;;20.31;41.99;101238.72;7255881;19;154928;-56
2023/02/25 01:53:32;;;;;;;;;;;;;;;20.28;42.07;101242.94;7256309;19;153430;-56
2023/02/25 01:56:02;;;;;;;;;;;;;;;20.26;42.04;101245.19;7255557;19;154568;-55
2023/02/25 01:58:31;;;;;;;;;;;;;;;20.25;42.24;101251.13;7252342;19;153397;-55
2023/02/25 02:00:58;;;;;;;;;;;;;;;20.22;42.08;101246.94;7256757;19;153518;-55
2023/02/25 02:03:26;;;;;;;;;;;;;;;20.21;42.16;101239.69;7253829;19;154519;-55
2023/02/25 02:05:58;;;;;;;;;;;;;;;20.19;42.46;101236.31;7255398;19;153942;-56
2023/02/25 02:08:25;;;;;;;;;;;;;;;20.17;42.53;101232.97;7252109;19;156419;-55
2023/02/25 02:10:52;;;;;;;;;;;;;;;20.15;42.33;101240.03;7261038;19;154320;-56
2023/02/25 02:13:19;;;;;;;;;;;;;;;20.13;42.26;101245.94;7251726;19;153525;-55
2023/02/25 02:16:00;;;;;;;;;;;;;;;20.10;42.29;101246.53;7254220;19;153876;-55
2023/02/25 02:18:30;;;;;;;;;;;;;;;20.06;42.61;101239.00;7254410;19;154788;-55
2023/02/25 02:21:10;;;;;;;;;;;;;;;20.03;42.70;101237.66;7254286;19;153584;-55
2023/02/25 02:23:45;;;;;;;;;;;;;;;19.98;42.30;101240.50;7252330;19;152773;-55
2023/02/25 02:26:12;;;;;;;;;;;;;;;19.97;42.45;101247.25;7254065;19;152261;-55
2023/02/25 02:28:40;;;;;;;;;;;;;;;19.92;42.56;101242.53;7247086;19;154132;-55
2023/02/25 02:31:09;;;;;;;;;;;;;;;19.92;42.34;101248.13;7259847;19;156538;-55
2023/02/25 02:33:39;;;;;;;;;;;;;;;19.90;42.39;101241.13;7253305;19;154429;-55
2023/02/25 02:36:17;;;;;;;;;;;;;;;19.87;42.73;101239.78;7254293;19;156743;-55
2023/02/25 02:38:44;;;;;;;;;;;;;;;19.83;42.53;101243.47;7253275;19;154408;-55
2023/02/25 02:41:16;;;;;;;;;;;;;;;19.82;42.94;101242.63;7253959;19;153296;-55
2023/02/25 02:43:46;;;;;;;;;;;;;;;19.81;42.52;101245.72;7248585;19;156823;-55
2023/02/25 02:46:18;;;;;;;;;;;;;;;19.79;42.72;101250.81;7253601;19;152219;-55
2023/02/25 02:48:49;;;;;;;;;;;;;;;19.76;42.62;101246.63;7251085;19;153867;-56
2023/02/25 02:51:21;;;;;;;;;;;;;;;19.74;42.42;101248.06;7251162;19;154249;-56
2023/02/25 02:53:51;;;;;;;;;;;;;;;19.72;42.55;101250.31;7260627;19;153141;-55
2023/02/25 02:56:20;;;;;;;;;;;;;;;19.69;42.56;101253.72;7253726;19;153341;-59
2023/02/25 02:58:51;;;;;;;;;;;;;;;19.66;42.65;101257.94;7249796;19;154243;-55
2023/02/25 03:01:21;;;;;;;;;;;;;;;19.65;42.83;101253.47;7253448;19;153146;-55
2023/02/25 03:03:51;;;;;;;;;;;;;;;19.64;42.66;101253.75;7252147;19;154133;-55
2023/02/25 03:06:20;;;;;;;;;;;;;;;19.62;42.98;101248.47;7248279;19;153347;-55
2023/02/25 03:08:49;;;;;;;;;;;;;;;19.59;42.69;101254.63;7250955;19;154638;-55
2023/02/25 03:11:16;;;;;;;;;;;;;;;19.61;42.85;101254.34;7251723;19;152461;-55
2023/02/25 03:13:43;;;;;;;;;;;;;;;19.55;42.94;101239.53;7250738;19;153578;-55
2023/02/25 03:16:15;;;;;;;;;;;;;;;19.56;42.95;101255.25;7260209;19;153705;-55
2023/02/25 03:18:48;;;;;;;;;;;;;;;19.54;42.87;101255.53;7253458;19;153296;-55
2023/02/25 03:21:19;;;;;;;;;;;;;;;19.51;43.12;101249.69;7253331;19;153489;-55
2023/02/25 03:23:47;;;;;;;;;;;;;;;19.49;43.04;101257.53;7250163;19;154157;-55
2023/02/25 03:26:14;;;;;;;;;;;;;;;19.48;43.27;101256.72;7253125;19;153356;-55
2023/02/25 03:28:43;;;;;;;;;;;;;;;19.45;43.34;101250.84;7247191;19;153707;-55
2023/02/25 03:31:13;;;;;;;;;;;;;;;19.44;42.85;101252.00;7251855;19;154060;-55
2023/02/25 03:33:46;;;;;;;;;;;;;;;19.41;43.00;101258.13;7251624;19;152944;-55
2023/02/25 03:36:16;;;;;;;;;;;;;;;19.38;43.32;101256.78;7253456;19;154814;-55
2023/02/25 03:38:45;;;;;;;;;;;;;;;19.38;43.34;101267.13;7259038;19;155353;-55
2023/02/25 03:41:14;;;;;;;;;;;;;;;19.35;43.04;101256.53;7252710;19;153030;-54
2023/02/25 03:43:44;;;;;;;;;;;;;;;19.32;43.08;101249.53;7252082;19;155174;-54
2023/02/25 03:46:15;;;;;;;;;;;;;;;19.29;43.13;101254.88;7259743;19;152784;-54
2023/02/25 03:48:42;;;;;;;;;;;;;;;19.28;43.21;101253.22;7256338;19;154312;-55
2023/02/25 03:51:09;;;;;;;;;;;;;;;19.25;43.16;101257.44;7256348;19;157491;-55
2023/02/25 03:53:35;;;;;;;;;;;;;;;19.24;43.50;101246.50;7260253;19;156085;-55
2023/02/25 03:56:04;;;;;;;;;;;;;;;19.23;43.17;101242.88;7258403;19;153601;-55
2023/02/25 03:58:32;;;;;;;;;;;;;;;19.20;43.19;101251.88;7254207;19;153778;-55
2023/02/25 04:01:02;;;;;;;;;;;;;;;19.17;43.36;101246.84;7266128;19;153622;-55
2023/02/25 04:03:29;;;;;;;;;;;;;;;19.15;43.39;101251.06;7256725;19;154045;-55
2023/02/25 04:05:55;;;;;;;;;;;;;;;19.15;43.65;101246.31;7254260;19;152425;-55
2023/02/25 04:08:22;;;;;;;;;;;;;;;19.10;43.31;101247.19;7252946;19;153909;-55
2023/02/25 04:10:49;;;;;;;;;;;;;;;19.09;43.59;101248.31;7256940;19;154443;-55
2023/02/25 04:13:18;;;;;;;;;;;;;;;19.06;43.78;101257.28;7253940;19;153187;-55
2023/02/25 04:15:47;;;;;;;;;;;;;;;19.06;43.44;101259.25;7258972;19;154487;-55
2023/02/25 04:18:14;;;;;;;;;;;;;;;19.04;43.48;101255.91;7255601;19;154083;-55
2023/02/25 04:20:41;;;;;;;;;;;;;;;19.03;43.63;101262.66;7266520;19;153462;-55
2023/02/25 04:23:11;;;;;;;;;;;;;;;19.02;43.64;101264.63;7258002;19;153903;-55
2023/02/25 04:25:37;;;;;;;;;;;;;;;19.01;43.75;101276.09;7259142;19;153824;-55
2023/02/25 04:28:04;;;;;;;;;;;;;;;18.99;43.81;101270.78;7257725;19;155117;-54
2023/02/25 04:30:31;;;;;;;;;;;;;;;18.97;43.85;101275.84;7254235;19;154759;-54
2023/02/25 04:33:00;;;;;;;;;;;;;;;18.96;43.83;101273.31;7258365;19;153201;-55
2023/02/25 04:35:26;;;;;;;;;;;;;;;18.94;44.28;101278.41;7257859;19;153168;-55
2023/02/25 04:37:53;;;;;;;;;;;;;;;18.92;43.84;101278.66;7256417;19;153668;-55
2023/02/25 04:40:21;;;;;;;;;;;;;;;18.91;43.98;101277.00;7258241;19;153798;-55
2023/02/25 04:42:48;;;;;;;;;;;;;;;18.88;44.03;101277.59;7262612;19;152561;-55
2023/02/25 04:45:17;;;;;;;;;;;;;;;18.87;44.38;101284.31;7254222;19;153190;-55
2023/02/25 04:47:44;;;;;;;;;;;;;;;18.86;44.05;101282.63;7257067;19;154668;-55
2023/02/25 04:50:11;;;;;;;;;;;;;;;18.86;43.84;101287.38;7255256;19;154442;-55
2023/02/25 04:52:38;;;;;;;;;;;;;;;18.84;44.06;101286.84;7258104;19;153029;-55
2023/02/25 04:55:05;;;;;;;;;;;;;;;18.86;44.03;101291.00;7256420;19;154006;-55
2023/02/25 04:57:32;;;;;;;;;;;;;;;18.83;44.26;101288.81;7255506;19;154170;-55
2023/02/25 04:59:59;;;;;;;;;;;;;;;18.81;44.10;101274.25;7253883;19;154222;-55
2023/02/25 05:02:25;;;;;;;;;;;;;;;18.81;43.95;101279.84;7257630;19;152252;-55
2023/02/25 05:04:52;;;;;;;;;;;;;;;18.80;44.03;101278.19;7263562;19;153878;-55
2023/02/25 05:07:19;;;;;;;;;;;;;;;18.77;44.30;101277.91;7257914;19;152649;-55
2023/02/25 05:09:46;;;;;;;;;;;;;;;18.76;44.21;101295.84;7252725;19;152974;-55
2023/02/25 05:12:13;;;;;;;;;;;;;;;18.73;44.04;101288.84;7257396;19;153729;-55
2023/02/25 05:14:40;;;;;;;;;;;;;;;18.73;44.15;101283.25;7253398;19;153266;-55
2023/02/25 05:17:07;;;;;;;;;;;;;;;18.70;44.31;101283.84;7256060;19;153263;-55
2023/02/25 05:19:34;;;;;;;;;;;;;;;18.71;44.03;101293.91;7257771;19;153473;-55
2023/02/25 05:22:01;;;;;;;;;;;;;;;18.70;44.37;101294.19;7257159;19;152898;-55
2023/02/25 05:24:28;;;;;;;;;;;;;;;18.70;44.02;101305.41;7254713;19;154039;-56
2023/02/25 05:26:54;;;;;;;;;;;;;;;18.67;44.03;101309.59;7262861;19;153502;-55
2023/02/25 05:29:21;;;;;;;;;;;;;;;18.64;44.49;101301.78;7249725;19;153267;-55
2023/02/25 05:31:50;;;;;;;;;;;;;;;18.62;44.27;101304.84;7256268;19;153640;-56
2023/02/25 05:34:17;;;;;;;;;;;;;;;18.64;44.42;101304.56;7256400;19;153529;-55
2023/02/25 05:36:45;;;;;;;;;;;;;;;18.63;44.07;101302.88;7254253;19;153477;-55
2023/02/25 05:39:12;;;;;;;;;;;;;;;18.59;44.12;101311.03;7255514;19;153268;-55
2023/02/25 05:41:39;;;;;;;;;;;;;;;18.59;44.05;101304.59;7255466;19;154774;-55
2023/02/25 05:44:06;;;;;;;;;;;;;;;18.57;44.28;101290.91;7251036;19;153961;-55
2023/02/25 05:46:33;;;;;;;;;;;;;;;18.55;44.29;101295.94;7254897;19;153077;-55
2023/02/25 05:49:00;;;;;;;;;;;;;;;18.54;44.34;101297.06;7261169;19;154642;-55
2023/02/25 05:51:27;;;;;;;;;;;;;;;18.52;44.31;101307.69;7255289;19;154110;-55
2023/02/25 05:53:54;;;;;;;;;;;;;;;18.53;44.21;101302.97;7260772;19;153043;-55
2023/02/25 05:56:23;;;;;;;;;;;;;;;18.51;44.23;101303.19;7281216;19;153781;-55
2023/02/25 05:58:51;;;;;;;;;;;;;;;18.48;44.21;101302.94;7272351;19;152250;-55
2023/02/25 06:01:21;;;;;;;;;;;;;;;18.46;44.59;101306.03;7255208;19;153652;-55
2023/02/25 06:03:49;;;;;;;;;;;;;;;18.46;44.32;101313.56;7253636;19;154325;-55
2023/02/25 06:06:19;;;;;;;;;;;;;;;18.45;44.60;101314.69;7253007;19;153518;-61
2023/02/25 06:08:48;;;;;;;;;;;;;;;18.44;44.13;101305.44;7252826;19;153954;-56
2023/02/25 06:11:17;;;;;;;;;;;;;;;18.41;44.17;101302.41;7262959;19;154912;-55
2023/02/25 06:13:46;;;;;;;;;;;;;;;18.41;44.17;101305.19;7251734;19;154256;-55
2023/02/25 06:16:13;;;;;;;;;;;;;;;18.39;44.33;101305.50;7255599;19;154372;-55
2023/02/25 06:18:40;;;;;;;;;;;;;;;18.39;44.54;101311.09;7254787;19;154008;-55
2023/02/25 06:21:11;;;;;;;;;;;;;;;18.38;44.56;101314.16;7255842;19;153688;-55
2023/02/25 06:23:39;;;;;;;;;;;;;;;18.38;44.53;101316.97;7252311;19;154944;-55
2023/02/25 06:26:06;;;;;;;;;;;;;;;18.35;44.59;101321.16;7256311;19;152947;-55
2023/02/25 06:28:34;;;;;;;;;;;;;;;18.34;44.23;101307.47;7251003;19;154669;-55
2023/02/25 06:31:03;;;;;;;;;;;;;;;18.32;44.45;101309.69;7261240;19;154138;-56
2023/02/25 06:33:30;;;;;;;;;;;;;;;18.31;44.43;101310.81;7253167;19;154371;-55
2023/02/25 06:35:57;;;;;;;;;;;;;;;18.29;44.37;101308.31;7253733;19;154905;-56
2023/02/25 06:38:29;;;;;;;;;;;;;;;18.29;44.21;101316.72;7253277;19;153014;-55
2023/02/25 06:40:56;;;;;;;;;;;;;;;18.28;44.26;101319.78;7254931;19;152305;-55
2023/02/25 06:43:23;;;;;;;;;;;;;;;18.26;44.62;101324.84;7247820;19;153915;-55
2023/02/25 06:45:52;;;;;;;;;;;;;;;18.28;44.48;101330.97;7255509;19;153779;-55
2023/02/25 06:48:18;;;;;;;;;;;;;;;18.30;44.54;101320.34;7252868;19;155399;-56
2023/02/25 06:50:45;;;;;;;;;;;;;;;18.28;44.43;101328.19;7251196;19;152416;-55
2023/02/25 06:53:12;;;;;;;;;;;;;;;18.25;44.20;101331.56;7260638;19;153628;-55
2023/02/25 06:55:39;;;;;;;;;;;;;;;18.28;44.50;101339.38;7253599;19;153169;-55
2023/02/25 06:58:06;;;;;;;;;;;;;;;18.23;44.51;101343.84;7252486;19;154281;-55
2023/02/25 07:00:34;;;;;;;;;;;;;;;18.20;44.63;101341.63;7251933;19;154337;-55
2023/02/25 07:03:01;;;;;;;;;;;;;;;18.19;44.54;101351.13;7252306;19;154037;-55
2023/02/25 07:05:28;;;;;;;;;;;;;;;18.17;44.86;101358.13;7252143;19;153089;-55
2023/02/25 07:07:55;;;;;;;;;;;;;;;18.16;44.79;101360.09;7252927;19;154584;-56
2023/02/25 07:10:24;;;;;;;;;;;;;;;18.15;44.82;101360.38;7249147;19;154192;-55
2023/02/25 07:12:52;;;;;;;;;;;;;;;18.14;44.46;101358.69;7253244;19;152955;-55
2023/02/25 07:15:19;;;;;;;;;;;;;;;18.21;44.73;101351.69;7255325;19;152936;-55
2023/02/25 07:17:46;;;;;;;;;;;;;;;18.17;44.67;101352.53;7260898;19;154585;-55
2023/02/25 07:20:13;;;;;;;;;;;;;;;18.13;44.89;101352.25;7260303;19;152410;-55
2023/02/25 07:22:41;;;;;;;;;;;;;;;18.15;44.86;101365.97;7260414;19;153417;-55
2023/02/25 07:25:10;;;;;;;;;;;;;;;18.17;44.85;101358.97;7259024;19;153579;-55
2023/02/25 07:27:39;;;;;;;;;;;;;;;18.14;45.09;101370.72;7261461;19;153115;-55
2023/02/25 07:30:12;;;;;;;;;;;;;;;18.10;44.81;101368.78;7252665;19;154219;-55
2023/02/25 07:32:40;;;;;;;;;;;;;;;18.07;45.19;101364.59;7259466;19;151789;-55
2023/02/25 07:35:08;;;;;;;;;;;;;;;18.07;45.19;101372.97;7258498;19;152547;-56
2023/02/25 07:37:34;;;;;;;;;;;;;;;18.05;45.05;101375.22;7267048;19;154365;-56
2023/02/25 07:40:01;;;;;;;;;;;;;;;18.04;45.16;101381.91;7258978;19;154270;-55
2023/02/25 07:42:28;;;;;;;;;;;;;;;18.03;44.92;101385.00;7258984;19;154870;-54
2023/02/25 07:44:57;;;;;;;;;;;;;;;18.04;44.81;101384.72;7254135;19;152048;-54
2023/02/25 07:47:27;;;;;;;;;;;;;;;17.99;44.90;101387.50;7258939;19;154039;-54
2023/02/25 07:49:54;;;;;;;;;;;;;;;17.99;45.00;101386.69;7256328;19;153253;-54
2023/02/25 07:52:23;;;;;;;;;;;;;;;17.97;44.81;101383.31;7259119;19;156954;-55
2023/02/25 07:54:50;;;;;;;;;;;;;;;17.97;45.21;101395.34;7258454;19;154021;-54
2023/02/25 07:57:17;;;;;;;;;;;;;;;17.96;45.01;101396.47;7257633;19;153609;-54
2023/02/25 07:59:44;;;;;;;;;;;;;;;17.95;45.07;101386.38;7262389;19;152590;-54
2023/02/25 08:02:11;;;;;;;;;;;;;;;17.95;44.75;101399.53;7257073;19;155000;-56
2023/02/25 08:04:38;;;;;;;;;;;;;;;17.93;45.01;101402.63;7258784;19;153457;-56
2023/02/25 08:07:05;;;;;;;;;;;;;;;17.92;45.22;101408.47;7259529;19;153400;-55
2023/02/25 08:09:32;;;;;;;;;;;;;;;17.90;45.19;101414.34;7256591;19;154355;-55
2023/02/25 08:11:59;;;;;;;;;;;;;;;17.90;44.99;101414.34;7257408;19;152101;-55
2023/02/25 08:14:25;;;;;;;;;;;;;;;17.90;44.79;101419.13;7257437;19;154548;-54
2023/02/25 08:16:55;;;;;;;;;;;;;;;17.89;44.94;101421.06;7258653;19;155276;-54
2023/02/25 08:19:22;;;;;;;;;;;;;;;17.90;44.82;101419.13;7259157;19;153419;-54
2023/02/25 08:21:49;;;;;;;;;;;;;;;17.88;45.06;101422.19;7264880;19;152267;-54
2023/02/25 08:24:19;;;;;;;;;;;;;;;17.89;45.11;101429.47;7258119;19;153629;-55
2023/02/25 08:26:46;;;;;;;;;;;;;;;17.88;45.29;101424.97;7257924;19;152946;-54
2023/02/25 08:29:13;;;;;;;;;;;;;;;17.88;45.21;101429.72;7251489;19;155434;-56
2023/02/25 08:31:40;;;;;;;;;;;;;;;17.87;45.30;101428.88;7257334;19;153205;-55
2023/02/25 08:34:10;;;;;;;;;;;;;;;17.84;45.13;101423.88;7256804;19;153919;-55
2023/02/25 08:36:36;;;;;;;;;;;;;;;17.86;45.00;101426.34;7255848;19;154575;-54
2023/02/25 08:39:03;;;;;;;;;;;;;;;17.84;45.37;101425.81;7257559;19;153384;-55
2023/02/25 08:41:30;;;;;;;;;;;;;;;17.84;45.16;101420.22;7263424;19;154854;-54
2023/02/25 08:43:57;;;;;;;;;;;;;;;17.83;45.18;101429.72;7253449;19;153987;-54
2023/02/25 08:46:26;;;;;;;;;;;;;;;17.82;44.97;101420.50;7256818;19;155148;-54
2023/02/25 08:48:53;;;;;;;;;;;;;;;17.81;45.20;101416.03;7254583;19;152698;-55
2023/02/25 08:51:21;;;;;;;;;;;;;;;17.82;45.48;101426.09;7257451;19;153416;-55
2023/02/25 08:53:49;;;;;;;;;;;;;;;17.81;45.48;101427.19;7259935;19;154100;-55
2023/02/25 08:56:16;;;;;;;;;;;;;;;17.81;45.42;101418.00;7257467;19;153839;-55
2023/02/25 08:58:43;;;;;;;;;;;;;;;17.78;45.54;101422.19;7255446;19;153874;-55
2023/02/25 09:01:12;;;;;;;;;;;;;;;17.78;45.63;101417.44;7256313;19;154029;-55
2023/02/25 09:03:49;;;;;;;;;;;;;;;17.78;45.43;101419.38;7264098;19;153487;-55
2023/02/25 09:06:18;;;;;;;;;;;;;;;17.77;45.44;101415.75;7257217;19;154688;-55
2023/02/25 09:08:45;;;;;;;;;;;;;;;17.77;45.56;101428.88;7253706;19;153677;-55
2023/02/25 09:11:12;;;;;;;;;;;;;;;17.76;45.36;101433.63;7255100;19;153792;-54
2023/02/25 09:13:39;;;;;;;;;;;;;;;17.77;45.48;101426.06;7251815;19;154613;-55
2023/02/25 09:16:06;;;;;;;;;;;;;;;17.74;45.75;101424.69;7255231;19;154220;-55
2023/02/25 09:18:33;;;;;;;;;;;;;;;17.74;45.28;101429.44;7258501;19;154379;-54
2023/02/25 09:21:00;;;;;;;;;;;;;;;17.76;45.29;101425.25;7258986;19;154536;-54
2023/02/25 09:23:27;;;;;;;;;;;;;;;17.76;45.44;101430.81;7254582;19;154079;-55
2023/02/25 09:25:54;;;;;;;;;;;;;;;17.77;45.83;101437.25;7263695;19;153739;-54
2023/02/25 09:28:21;;;;;;;;;;;;;;;17.76;45.60;101428.03;7250828;19;153044;-54
2023/02/25 09:30:50;;;;;;;;;;;;;;;17.75;45.42;101431.13;7255495;19;154467;-55
2023/02/25 09:33:16;;;;;;;;;;;;;;;17.80;45.87;101424.69;7255691;19;152432;-55
2023/02/25 09:35:44;;;;;;;;;;;;;;;17.78;45.62;101439.78;7256114;19;153493;-55
2023/02/25 09:38:11;;;;;;;;;;;;;;;17.80;45.80;101433.94;7256139;19;153246;-54
2023/02/25 09:40:40;;;;;;;;;;;;;;;17.84;45.68;101437.84;7253652;19;153638;-60
2023/02/25 09:43:09;;;;;;;;;;;;;;;17.90;45.70;101435.91;7253481;19;156295;-55
2023/02/25 09:45:37;;;;;;;;;;;;;;;17.96;45.61;101430.00;7253645;19;153267;-55
2023/02/25 09:48:14;;;;;;;;;;;;;;;18.00;45.47;101431.13;7260795;19;155475;-55
2023/02/25 09:50:45;;;;;;;;;;;;;;;18.08;45.40;101429.75;7253940;19;155106;-55
2023/02/25 09:53:16;;;;;;;;;;;;;;;18.14;45.50;101423.84;7255844;19;153987;-55
2023/02/25 09:55:46;;;;;;;;;;;;;;;18.21;45.35;101441.16;7254083;19;153340;-55
2023/02/25 09:58:16;;;;;;;;;;;;;;;18.30;45.23;101429.44;7252330;19;153801;-55
2023/02/25 10:00:44;;;;;;;;;;;;;;;18.38;45.32;101434.47;7254740;19;153787;-55
2023/02/25 10:03:11;;;;;;;;;;;;;;;18.48;44.05;101446.47;7249995;19;154442;-55
2023/02/25 10:05:40;;;;;;;;;;;;;;;18.55;43.15;101441.44;7254908;19;152467;-55
2023/02/25 10:08:17;;;;;;;;;;;;;;;18.61;43.18;101439.47;7255890;19;154562;-54
2023/02/25 10:11:11;;;;;;;;;;;;;;;18.68;42.42;101437.22;7258240;19;154234;-55
2023/02/25 10:13:41;;;;;;;;;;;;;;;18.76;42.76;101441.41;7249734;19;153739;-55
2023/02/25 10:16:09;;;;;;;;;;;;;;;18.84;42.04;101440.81;7253700;19;154404;-55
2023/02/25 10:18:40;;;;;;;;;;;;;;;18.91;42.30;101446.94;7255785;19;154021;-55
2023/02/25 10:21:10;;;;;;;;;;;;;;;18.98;42.59;101445.53;7257761;19;155972;-55
2023/02/25 10:23:47;;;;;;;;;;;;;;;19.06;42.31;101438.50;7251422;19;154974;-56
2023/02/25 10:26:18;;;;;;;;;;;;;;;19.09;41.65;101441.56;7254420;19;154346;-55
2023/02/25 10:28:49;;;;;;;;;;;;;;;19.16;41.81;101449.66;7253231;19;153407;-56
2023/02/25 10:31:17;;;;;;;;;;;;;;;19.22;41.86;101444.84;7251539;19;153750;-55
2023/02/25 10:33:47;;;;;;;;;;;;;;;19.26;41.62;101446.78;7261279;19;152388;-56
2023/02/25 10:36:14;;;;;;;;;;;;;;;19.30;41.96;101456.31;7252670;19;154475;-56
2023/02/25 10:38:44;;;;;;;;;;;;;;;19.35;41.64;101459.06;7252827;19;153200;-56
2023/02/25 10:41:11;;;;;;;;;;;;;;;19.43;41.29;101460.44;7253566;19;154493;-56
2023/02/25 10:43:39;;;;;;;;;;;;;;;19.48;41.50;101468.88;7252205;19;154225;-55
2023/02/25 10:46:09;;;;;;;;;;;;;;;19.52;41.19;101454.00;7257631;19;153964;-55
2023/02/25 10:48:37;;;;;;;;;;;;;;;19.50;40.46;101463.78;7256151;19;152324;-57
2023/02/25 10:51:04;;;;;;;;;;;;;;;19.28;36.71;101469.75;7254339;19;154243;-56
2023/02/25 10:53:32;;;;;;;;;;;;;;;19.27;36.83;101472.84;7264070;19;153443;-57
2023/02/25 10:56:00;;;;;;;;;;;;;;;19.40;37.41;101472.22;7257156;19;154084;-56
2023/02/25 10:58:32;;;;;;;;;;;;;;;19.47;38.00;101467.19;7251736;19;153087;-56
2023/02/25 11:01:03;;;;;;;;;;;;;;;19.52;38.41;101465.19;7253313;19;154200;-56
2023/02/25 11:03:31;;;;;;;;;;;;;;;19.59;38.67;101475.22;7250911;19;155597;-56
2023/02/25 11:06:01;;;;;;;;;;;;;;;19.61;38.79;101465.41;7252289;19;152666;-56
2023/02/25 11:08:30;;;;;;;;;;;;;;;19.66;38.65;101470.16;7250539;19;152705;-56
2023/02/25 11:10:59;;;;;;;;;;;;;;;19.69;39.20;101466.75;7250965;19;153702;-56
2023/02/25 11:13:28;;;;;;;;;;;;;;;19.74;38.95;101456.38;7249772;19;154022;-56
2023/02/25 11:15:57;;;;;;;;;;;;;;;19.81;39.07;101464.44;7259820;19;153118;-56
2023/02/25 11:18:27;;;;;;;;;;;;;;;19.82;39.19;101474.53;7253345;19;153947;-56
2023/02/25 11:20:58;;;;;;;;;;;;;;;19.87;38.96;101461.31;7254192;19;154169;-56
2023/02/25 11:23:28;;;;;;;;;;;;;;;19.93;39.16;101467.72;7252452;19;154675;-56
2023/02/25 11:25:56;;;;;;;;;;;;;;;19.99;39.16;101467.38;7251491;19;153524;-56
2023/02/25 11:28:27;;;;;;;;;;;;;;;20.05;39.27;101470.16;7247829;19;154176;-56
2023/02/25 11:31:04;;;;;;;;;;;;;;;20.12;38.94;101454.69;7252199;19;153638;-56
2023/02/25 11:33:35;;;;;;;;;;;;;;;20.16;39.39;101464.19;7253442;19;153661;-56
2023/02/25 11:36:03;;;;;;;;;;;;;;;20.20;39.33;101468.06;7252808;19;153464;-56
2023/02/25 11:38:33;;;;;;;;;;;;;;;20.24;39.34;101471.13;7259372;19;153571;-56
2023/02/25 11:41:01;;;;;;;;;;;;;;;20.27;39.45;101468.56;7257565;19;154910;-56
2023/02/25 11:43:32;;;;;;;;;;;;;;;20.35;38.95;101453.91;7250020;19;154073;-56
2023/02/25 11:46:01;;;;;;;;;;;;;;;20.40;38.98;101459.47;7254331;19;153320;-56
2023/02/25 11:48:29;;;;;;;;;;;;;;;20.48;39.09;101460.00;7250519;19;152082;-55
2023/02/25 11:50:59;;;;;;;;;;;;;;;20.52;38.89;101455.47;7251127;19;154457;-56
2023/02/25 11:53:29;;;;;;;;;;;;;;;20.57;38.97;101447.00;7250953;19;153668;-55
2023/02/25 11:56:03;;;;;;;;;;;;;;;20.63;38.92;101451.41;7251228;19;154101;-55
2023/02/25 11:58:33;;;;;;;;;;;;;;;20.69;39.05;101447.41;7249212;19;154483;-56
2023/02/25 12:01:03;;;;;;;;;;;;;;;20.73;39.05;101446.53;7260456;19;154163;-56
2023/02/25 12:03:34;;;;;;;;;;;;;;;20.75;38.93;101435.84;7252140;19;153292;-56
2023/02/25 12:06:04;;;;;;;;;;;;;;;20.79;38.51;101436.06;7257877;19;152949;-55
2023/02/25 12:08:34;;;;;;;;;;;;;;;20.81;38.64;101437.44;7257579;19;153930;-55
2023/02/25 12:11:04;;;;;;;;;;;;;;;20.85;38.57;101438.50;7256534;19;153356;-56
2023/02/25 12:13:34;;;;;;;;;;;;;;;20.91;38.61;101435.63;7253829;19;153972;-56
2023/02/25 12:16:01;;;;;;;;;;;;;;;20.93;38.25;101434.22;7258682;19;152040;-55
2023/02/25 12:18:31;;;;;;;;;;;;;;;20.95;38.36;101437.56;7255739;19;154299;-56
2023/02/25 12:21:02;;;;;;;;;;;;;;;20.97;38.32;101431.66;7258930;19;152491;-56
2023/02/25 12:23:32;;;;;;;;;;;;;;;21.01;37.91;101438.34;7262949;19;154068;-56
2023/02/25 12:26:02;;;;;;;;;;;;;;;21.02;38.33;101428.78;7255465;19;152624;-56
2023/02/25 12:28:33;;;;;;;;;;;;;;;21.05;38.12;101431.81;7253134;19;153610;-56
2023/02/25 12:31:11;;;;;;;;;;;;;;;21.09;38.15;101426.41;7257057;19;153795;-56
2023/02/25 12:33:41;;;;;;;;;;;;;;;21.11;38.33;101439.06;7256969;19;152825;-56
2023/02/25 12:36:09;;;;;;;;;;;;;;;21.14;37.83;101432.84;7257837;19;154856;-56